Time;durP1;ratioP1;P1;durP2;ratioP2;P2;SDS_P1;SDS_P2;PMS_P1;PMS_P2;Temp;Humidity;BMP_temperature;BMP_pressure;BME280_temperature;BME280_humidity;BME280_pressure;Samples;Min_cycle;Max_cycle;Signal;HPM_P1;HPM_P2
2023/06/04 00:02:17;;;;;;;11.10;7.07;;;11.60;99.90;;;;;;5051577;28;20068;-72
2023/06/04 00:04:43;;;;;;;8.60;6.57;;;11.60;99.90;;;;;;5052057;28;20048;-72
2023/06/04 00:07:08;;;;;;;9.52;7.68;;;11.60;99.90;;;;;;5051891;28;20455;-72
2023/06/04 00:09:34;;;;;;;12.55;7.43;;;11.60;99.90;;;;;;5051375;28;20028;-71
2023/06/04 00:12:00;;;;;;;8.68;6.00;;;11.60;99.90;;;;;;5052115;28;20119;-71
2023/06/04 00:14:26;;;;;;;14.15;7.68;;;11.60;99.90;;;;;;5050835;28;20028;-72
2023/06/04 00:16:51;;;;;;;9.75;7.53;;;11.50;99.90;;;;;;5051888;28;20075;-72
2023/06/04 00:19:17;;;;;;;11.82;6.82;;;11.50;99.90;;;;;;5051508;28;20029;-72
2023/06/04 00:21:43;;;;;;;9.73;6.00;;;11.50;99.90;;;;;;5052033;28;20033;-72
2023/06/04 00:24:09;;;;;;;8.73;6.55;;;11.40;99.90;;;;;;5051879;28;20100;-72
2023/06/04 00:26:34;;;;;;;11.80;7.10;;;11.40;99.90;;;;;;5051034;28;20624;-72
2023/06/04 00:29:01;;;;;;;10.55;7.28;;;11.40;99.90;;;;;;5051605;28;20029;-72
2023/06/04 00:31:26;;;;;;;8.93;6.57;;;11.40;99.90;;;;;;5051059;28;20083;-72
2023/06/04 00:33:52;;;;;;;9.90;6.90;;;11.40;99.90;;;;;;5051706;28;20412;-72
2023/06/04 00:36:18;;;;;;;13.90;6.68;;;11.40;99.90;;;;;;5050528;28;20032;-74
2023/06/04 00:38:44;;;;;;;10.05;7.40;;;11.30;99.90;;;;;;5051629;28;20398;-72
2023/06/04 00:41:09;;;;;;;10.57;7.53;;;11.30;99.90;;;;;;5051234;28;20127;-72
2023/06/04 00:43:35;;;;;;;9.73;6.85;;;11.20;99.90;;;;;;5049548;28;20768;-72
2023/06/04 00:46:03;;;;;;;10.95;6.93;;;11.20;99.90;;;;;;5051474;28;20036;-72
2023/06/04 00:48:30;;;;;;;9.38;6.88;;;11.20;99.90;;;;;;5051689;28;20104;-72
2023/06/04 00:50:56;;;;;;;9.38;7.20;;;11.10;99.90;;;;;;5052004;28;20184;-72
2023/06/04 00:53:24;;;;;;;8.63;6.85;;;11.10;99.90;;;;;;5051104;28;20029;-72
2023/06/04 00:55:50;;;;;;;10.82;6.18;;;11.10;99.90;;;;;;5051527;28;20431;-72
2023/06/04 00:58:17;;;;;;;8.98;7.07;;;11.00;99.90;;;;;;5049980;28;20064;-75
2023/06/04 01:00:46;;;;;;;8.98;6.80;;;11.00;99.90;;;;;;5051051;28;20033;-71
2023/06/04 01:03:18;;;;;;;11.80;7.15;;;10.90;99.90;;;;;;5050216;28;20037;-72
2023/06/04 01:05:56;;;;;;;10.63;7.28;;;10.90;99.90;;;;;;5051356;28;20111;-72
2023/06/04 01:08:23;;;;;;;8.57;6.95;;;10.90;99.90;;;;;;5050784;28;20033;-72
2023/06/04 01:10:53;;;;;;;9.95;7.35;;;10.90;99.90;;;;;;5050943;28;20037;-72
2023/06/04 01:13:19;;;;;;;14.40;8.13;;;10.90;99.90;;;;;;5050943;28;20112;-76
2023/06/04 01:15:45;;;;;;;12.63;6.72;;;10.90;99.90;;;;;;5051038;28;20111;-71
2023/06/04 01:18:29;;;;;;;11.23;7.25;;;10.90;99.90;;;;;;5051539;28;20510;-72
2023/06/04 01:21:03;;;;;;;12.13;7.70;;;10.80;99.90;;;;;;5051193;28;20037;-72
2023/06/04 01:23:58;;;;;;;14.45;8.30;;;10.70;99.90;;;;;;5050355;28;20025;-72
2023/06/04 01:26:29;;;;;;;11.18;8.02;;;10.70;99.90;;;;;;5048812;28;20095;-72
2023/06/04 01:28:56;;;;;;;10.07;7.47;;;10.70;99.90;;;;;;5051123;28;20029;-71
2023/06/04 01:31:22;;;;;;;10.80;7.45;;;10.70;99.90;;;;;;5050328;28;20029;-72
2023/06/04 01:33:58;;;;;;;11.30;7.28;;;10.70;99.90;;;;;;5051000;28;20033;-72
2023/06/04 01:36:24;;;;;;;10.70;7.22;;;10.70;99.90;;;;;;5050280;28;20354;-72
2023/06/04 01:38:50;;;;;;;11.13;6.80;;;10.60;99.90;;;;;;5050735;28;20112;-72
2023/06/04 01:41:16;;;;;;;9.15;6.93;;;10.60;99.90;;;;;;5049297;28;20040;-71
2023/06/04 01:43:42;;;;;;;9.80;7.03;;;10.70;99.90;;;;;;5049979;28;20033;-71
2023/06/04 01:46:07;;;;;;;10.52;6.78;;;10.60;99.90;;;;;;5050400;28;20136;-71
2023/06/04 01:48:33;;;;;;;11.38;6.45;;;10.50;99.90;;;;;;5050093;28;20024;-71
2023/06/04 01:51:00;;;;;;;9.48;6.53;;;10.60;99.90;;;;;;5050209;28;20418;-71
2023/06/04 01:53:25;;;;;;;11.35;7.13;;;10.60;99.90;;;;;;5048906;28;20481;-72
2023/06/04 01:55:52;;;;;;;10.10;6.82;;;10.60;99.90;;;;;;5049925;28;20025;-71
2023/06/04 01:58:22;;;;;;;10.68;7.22;;;10.50;99.90;;;;;;5050042;28;20168;-71
2023/06/04 02:00:49;;;;;;;10.95;6.82;;;10.50;99.90;;;;;;5050065;28;20123;-71
2023/06/04 02:03:15;;;;;;;10.98;7.03;;;10.40;99.90;;;;;;5050257;28;20462;-71
2023/06/04 02:05:44;;;;;;;12.13;7.28;;;10.40;99.90;;;;;;5049577;28;20021;-71
2023/06/04 02:08:11;;;;;;;13.43;8.63;;;10.50;99.90;;;;;;5049785;28;20105;-71
2023/06/04 02:10:36;;;;;;;9.63;6.97;;;10.40;99.90;;;;;;5049595;28;20110;-71
2023/06/04 02:13:03;;;;;;;10.57;7.75;;;10.40;99.90;;;;;;5048622;28;20048;-72
2023/06/04 02:15:30;;;;;;;10.73;7.28;;;10.40;99.90;;;;;;5049310;28;20021;-71
2023/06/04 02:18:15;;;;;;;13.77;7.70;;;10.40;99.90;;;;;;5049669;28;20025;-71
2023/06/04 02:20:42;;;;;;;9.50;7.05;;;10.40;99.90;;;;;;5049307;28;20048;-71
2023/06/04 02:23:08;;;;;;;10.35;6.90;;;10.30;99.90;;;;;;5049615;28;20025;-71
2023/06/04 02:25:34;;;;;;;9.98;6.53;;;10.30;99.90;;;;;;5048585;28;20029;-71
2023/06/04 02:27:59;;;;;;;13.25;7.43;;;10.30;99.90;;;;;;5049567;28;20378;-71
2023/06/04 02:30:25;;;;;;;11.30;7.13;;;10.30;99.90;;;;;;5048895;28;20151;-73
2023/06/04 02:32:51;;;;;;;10.02;7.20;;;10.20;99.90;;;;;;5049699;28;20416;-71
2023/06/04 02:35:17;;;;;;;12.18;7.07;;;10.20;99.90;;;;;;5049530;28;20029;-71
2023/06/04 02:37:43;;;;;;;9.10;6.68;;;10.10;99.90;;;;;;5048561;28;20607;-71
2023/06/04 02:40:10;;;;;;;10.07;6.93;;;10.10;99.90;;;;;;5049650;28;20021;-70
2023/06/04 02:42:36;;;;;;;9.82;6.88;;;10.10;99.90;;;;;;5048888;28;20259;-71
2023/06/04 02:45:02;;;;;;;12.30;7.35;;;10.10;99.90;;;;;;5049824;28;20037;-71
2023/06/04 02:47:27;;;;;;;10.32;6.72;;;10.10;99.90;;;;;;5049634;28;20451;-72
2023/06/04 02:49:53;;;;;;;10.35;7.18;;;10.10;99.90;;;;;;5050351;28;20033;-71
2023/06/04 02:52:22;;;;;;;8.20;7.30;;;10.00;99.90;;;;;;5050137;28;20048;-71
2023/06/04 02:54:48;;;;;;;9.98;7.65;;;10.00;99.90;;;;;;5049714;28;20029;-71
2023/06/04 02:57:14;;;;;;;8.55;6.88;;;10.00;99.90;;;;;;5050000;28;20051;-71
2023/06/04 02:59:39;;;;;;;9.82;7.03;;;10.10;99.90;;;;;;5049206;28;20169;-71
2023/06/04 03:02:05;;;;;;;10.23;6.70;;;10.10;99.90;;;;;;5049708;28;20026;-71
2023/06/04 03:04:34;;;;;;;10.32;6.97;;;10.10;99.90;;;;;;5049137;28;20527;-71
2023/06/04 03:07:02;;;;;;;9.88;7.18;;;10.00;99.90;;;;;;5052114;28;20025;-71
2023/06/04 03:09:29;;;;;;;8.77;6.97;;;10.00;99.90;;;;;;5053031;28;20091;-74
2023/06/04 03:11:57;;;;;;;10.98;7.07;;;9.90;99.90;;;;;;5053266;28;20051;-71
2023/06/04 03:14:23;;;;;;;10.90;7.18;;;9.90;99.90;;;;;;5053272;28;20108;-71
2023/06/04 03:16:51;;;;;;;10.38;7.35;;;9.90;99.90;;;;;;5052510;28;20032;-71
2023/06/04 03:19:17;;;;;;;10.90;7.65;;;9.90;99.90;;;;;;5051552;28;20091;-71
2023/06/04 03:21:42;;;;;;;10.85;7.25;;;9.90;99.90;;;;;;5052088;28;20040;-71
2023/06/04 03:24:08;;;;;;;11.27;7.57;;;9.80;99.90;;;;;;5052818;28;20104;-71
2023/06/04 03:26:34;;;;;;;9.90;6.90;;;9.80;99.90;;;;;;5052136;28;20122;-71
2023/06/04 03:28:59;;;;;;;9.98;7.30;;;9.90;99.90;;;;;;5052790;28;20028;-70
2023/06/04 03:31:25;;;;;;;10.18;7.50;;;9.90;99.90;;;;;;5052987;28;20078;-70
2023/06/04 03:33:52;;;;;;;8.43;6.47;;;9.80;99.90;;;;;;5052729;28;20051;-71
2023/06/04 03:36:18;;;;;;;13.65;8.15;;;9.80;99.90;;;;;;5052879;28;20021;-71
2023/06/04 03:38:46;;;;;;;10.82;6.80;;;9.90;99.90;;;;;;5052458;28;20033;-70
2023/06/04 03:41:12;;;;;;;12.80;7.63;;;9.80;99.90;;;;;;5052811;28;20374;-70
2023/06/04 03:43:37;;;;;;;10.20;7.25;;;9.80;99.90;;;;;;5052302;28;20042;-71
2023/06/04 03:46:03;;;;;;;10.90;7.80;;;9.70;99.90;;;;;;5052661;28;20079;-70
2023/06/04 03:48:29;;;;;;;10.45;7.55;;;9.70;99.90;;;;;;5052563;28;20029;-74
2023/06/04 03:50:54;;;;;;;10.10;7.88;;;9.60;99.90;;;;;;5052814;28;20120;-69
2023/06/04 03:53:20;;;;;;;13.20;7.80;;;9.70;99.90;;;;;;5051265;28;20381;-71
2023/06/04 03:55:46;;;;;;;13.13;8.07;;;9.60;99.90;;;;;;5051931;28;20024;-71
2023/06/04 03:58:12;;;;;;;9.60;6.80;;;9.60;99.90;;;;;;5053000;28;20100;-70
2023/06/04 04:00:37;;;;;;;10.48;7.45;;;9.60;99.90;;;;;;5051981;28;20350;-70
2023/06/04 04:03:03;;;;;;;8.02;6.72;;;9.60;99.90;;;;;;5052259;28;20485;-70
2023/06/04 04:05:29;;;;;;;7.05;5.85;;;9.60;99.90;;;;;;5052430;28;20028;-74
2023/06/04 04:07:54;;;;;;;10.07;7.47;;;9.60;99.90;;;;;;5052187;28;20566;-70
2023/06/04 04:10:20;;;;;;;12.25;8.20;;;9.60;99.90;;;;;;5052437;28;20074;-70
2023/06/04 04:12:46;;;;;;;9.90;6.90;;;9.60;99.90;;;;;;5052017;28;20024;-70
2023/06/04 04:15:12;;;;;;;10.00;7.13;;;9.60;99.90;;;;;;5052563;28;20100;-70
2023/06/04 04:17:38;;;;;;;10.05;7.55;;;9.50;99.90;;;;;;5051564;28;20511;-71
2023/06/04 04:20:05;;;;;;;11.35;7.90;;;9.60;99.90;;;;;;5051961;28;20101;-70
2023/06/04 04:22:31;;;;;;;11.88;7.50;;;9.60;99.90;;;;;;5051913;28;20126;-74
2023/06/04 04:24:57;;;;;;;8.52;7.07;;;9.60;99.90;;;;;;5052231;28;20084;-69
2023/06/04 04:27:23;;;;;;;8.55;6.75;;;9.50;99.90;;;;;;5051739;28;20041;-71
2023/06/04 04:29:49;;;;;;;11.70;6.53;;;9.60;99.90;;;;;;5051509;28;20029;-71
2023/06/04 04:32:16;;;;;;;9.75;6.60;;;9.60;99.90;;;;;;5051632;28;20395;-71
2023/06/04 04:34:51;;;;;;;10.98;7.15;;;9.60;99.90;;;;;;5051280;28;20171;-70
2023/06/04 04:37:20;;;;;;;9.43;7.13;;;9.60;99.90;;;;;;5051885;28;20036;-70
2023/06/04 04:39:46;;;;;;;8.70;6.90;;;9.60;99.90;;;;;;5051259;28;20028;-70
2023/06/04 04:42:12;;;;;;;9.43;6.80;;;9.60;99.90;;;;;;5051787;28;20102;-72
2023/06/04 04:44:38;;;;;;;10.55;7.30;;;9.70;99.90;;;;;;5051108;28;20037;-71
2023/06/04 04:47:04;;;;;;;9.13;6.97;;;9.70;99.90;;;;;;5051990;28;20108;-71
2023/06/04 04:49:29;;;;;;;11.80;7.07;;;9.80;99.90;;;;;;5051386;28;20048;-71
2023/06/04 04:51:55;;;;;;;10.00;7.22;;;9.80;99.90;;;;;;5051077;28;20044;-71
2023/06/04 04:54:21;;;;;;;9.50;6.75;;;9.90;99.90;;;;;;5051463;28;20025;-70
2023/06/04 04:56:46;;;;;;;10.45;6.82;;;10.00;99.90;;;;;;5051089;28;20032;-71
2023/06/04 04:59:12;;;;;;;11.95;7.55;;;10.10;99.90;;;;;;5051442;28;20029;-71
2023/06/04 05:01:38;;;;;;;10.90;7.47;;;10.20;99.90;;;;;;5050855;28;20451;-71
2023/06/04 05:04:04;;;;;;;8.40;6.75;;;10.40;99.90;;;;;;5051545;28;20040;-71
2023/06/04 05:06:29;;;;;;;11.57;7.00;;;10.60;99.90;;;;;;5051427;28;20412;-70
2023/06/04 05:08:55;;;;;;;9.18;6.93;;;10.70;99.90;;;;;;5050821;28;20063;-71
2023/06/04 05:11:21;;;;;;;9.73;7.40;;;10.80;99.90;;;;;;5051660;28;20345;-71
2023/06/04 05:13:47;;;;;;;8.20;6.63;;;11.00;99.90;;;;;;5050786;28;20029;-71
2023/06/04 05:16:13;;;;;;;9.20;6.55;;;11.10;99.90;;;;;;5051644;28;20031;-71
2023/06/04 05:18:44;;;;;;;7.43;6.60;;;11.20;99.90;;;;;;5049386;28;20122;-71
2023/06/04 05:21:11;;;;;;;9.90;6.75;;;11.30;99.90;;;;;;5051045;28;20025;-71
2023/06/04 05:23:38;;;;;;;8.77;6.53;;;11.40;99.90;;;;;;5050198;28;20029;-71
2023/06/04 05:26:04;;;;;;;11.25;6.85;;;11.60;99.90;;;;;;5051244;28;20056;-71
2023/06/04 05:28:33;;;;;;;9.38;6.93;;;11.70;99.90;;;;;;5049137;28;20079;-71
2023/06/04 05:30:59;;;;;;;9.98;6.78;;;11.80;99.90;;;;;;5050294;28;20058;-71
2023/06/04 05:33:30;;;;;;;9.27;7.22;;;11.90;99.90;;;;;;5050725;28;20029;-71
2023/06/04 05:35:58;;;;;;;10.30;7.00;;;12.00;99.90;;;;;;5050456;28;20666;-71
2023/06/04 05:38:30;;;;;;;11.32;7.40;;;12.10;99.90;;;;;;5051066;28;20108;-71
2023/06/04 05:40:56;;;;;;;8.82;6.72;;;12.20;99.90;;;;;;5050428;28;20106;-71
2023/06/04 05:43:22;;;;;;;7.55;6.85;;;12.30;99.90;;;;;;5050757;28;20090;-72
2023/06/04 05:45:49;;;;;;;7.35;6.45;;;12.40;99.90;;;;;;5049815;28;20533;-71
2023/06/04 05:48:15;;;;;;;12.30;6.50;;;12.60;99.90;;;;;;5050968;28;20029;-72
2023/06/04 05:50:40;;;;;;;9.50;6.05;;;12.70;99.90;;;;;;5049504;28;20044;-72
2023/06/04 05:53:06;;;;;;;9.43;6.75;;;12.80;99.90;;;;;;5050509;28;20131;-71
2023/06/04 05:55:32;;;;;;;12.25;7.50;;;12.90;99.90;;;;;;5050285;28;20100;-71
2023/06/04 05:57:58;;;;;;;8.77;6.60;;;13.00;99.90;;;;;;5049951;28;20131;-71
2023/06/04 06:00:24;;;;;;;9.00;6.75;;;13.20;99.90;;;;;;5049925;28;20021;-71
2023/06/04 06:02:50;;;;;;;10.18;7.50;;;13.30;99.90;;;;;;5049663;28;20326;-73
2023/06/04 06:05:18;;;;;;;9.73;6.82;;;13.50;99.90;;;;;;5050629;28;20037;-71
2023/06/04 06:07:45;;;;;;;11.18;6.90;;;13.70;99.90;;;;;;5049493;28;20032;-71
2023/06/04 06:10:11;;;;;;;10.93;6.22;;;13.80;99.90;;;;;;5050375;28;20032;-71
2023/06/04 06:12:37;;;;;;;9.88;6.82;;;13.90;99.90;;;;;;5050145;28;20079;-76
2023/06/04 06:15:03;;;;;;;9.52;6.00;;;14.20;99.90;;;;;;5050134;28;20056;-72
2023/06/04 06:17:29;;;;;;;7.47;6.15;;;14.30;99.90;;;;;;5050350;28;20046;-71
2023/06/04 06:19:55;;;;;;;11.27;5.93;;;14.40;99.90;;;;;;5049247;28;20104;-71
2023/06/04 06:22:22;;;;;;;8.70;6.18;;;14.60;99.90;;;;;;5049832;28;20052;-72
2023/06/04 06:24:50;;;;;;;8.68;5.90;;;14.80;99.90;;;;;;5049255;28;20454;-72
2023/06/04 06:27:17;;;;;;;10.55;5.95;;;14.90;99.90;;;;;;5049490;28;20049;-72
2023/06/04 06:29:43;;;;;;;9.55;6.38;;;15.10;99.90;;;;;;5049044;28;20479;-72
2023/06/04 06:32:10;;;;;;;10.60;5.78;;;15.20;99.90;;;;;;5049971;28;20451;-72
2023/06/04 06:34:37;;;;;;;10.23;6.88;;;15.40;99.90;;;;;;5049489;28;20096;-72
2023/06/04 06:37:03;;;;;;;11.07;6.32;;;15.60;99.90;;;;;;5048940;28;20336;-72
2023/06/04 06:39:28;;;;;;;9.02;5.57;;;15.80;99.90;;;;;;5049881;28;20094;-72
2023/06/04 06:41:54;;;;;;;11.40;7.22;;;16.00;99.90;;;;;;5053499;28;20087;-72
2023/06/04 06:44:20;;;;;;;10.77;6.03;;;16.00;99.90;;;;;;5053503;28;20029;-72
2023/06/04 06:46:48;;;;;;;7.57;5.88;;;16.10;99.90;;;;;;5053715;28;20379;-72
2023/06/04 06:49:14;;;;;;;7.20;5.20;;;16.20;99.90;;;;;;5053797;28;20466;-72
2023/06/04 06:51:40;;;;;;;10.23;5.70;;;16.30;99.90;;;;;;5054164;28;20029;-75
2023/06/04 06:54:08;;;;;;;8.98;4.95;;;16.40;99.90;;;;;;5054636;28;20029;-72
2023/06/04 06:56:34;;;;;;;8.27;5.00;;;16.60;99.90;;;;;;5053727;28;20021;-72
2023/06/04 06:59:00;;;;;;;12.60;5.85;;;16.70;99.90;;;;;;5053245;28;20040;-72
2023/06/04 07:01:26;;;;;;;8.52;5.50;;;16.90;99.90;;;;;;5053445;28;20033;-72
2023/06/04 07:03:52;;;;;;;11.88;5.32;;;17.00;99.90;;;;;;5053230;28;20350;-72
2023/06/04 07:06:18;;;;;;;10.85;4.75;;;17.10;99.90;;;;;;5053388;28;20091;-72
2023/06/04 07:08:43;;;;;;;10.40;4.28;;;17.10;99.90;;;;;;5052746;28;20036;-73
2023/06/04 07:11:12;;;;;;;10.40;5.05;;;17.10;99.90;;;;;;5053914;28;20033;-72
2023/06/04 07:13:39;;;;;;;8.68;4.22;;;17.20;99.90;;;;;;5053404;28;20507;-72
2023/06/04 07:16:05;;;;;;;12.73;4.70;;;17.30;99.90;;;;;;5053024;28;20025;-72
2023/06/04 07:18:31;;;;;;;9.15;4.18;;;17.30;99.90;;;;;;5053505;28;20033;-72
2023/06/04 07:20:56;;;;;;;9.80;4.65;;;17.40;99.90;;;;;;5052626;28;20094;-71
2023/06/04 07:23:22;;;;;;;9.57;4.47;;;17.40;99.90;;;;;;5053773;28;20025;-71
2023/06/04 07:25:48;;;;;;;11.07;4.97;;;17.40;99.90;;;;;;5052384;28;20308;-70
2023/06/04 07:28:14;;;;;;;10.68;4.00;;;17.20;99.90;;;;;;5053486;28;20036;-72
2023/06/04 07:30:39;;;;;;;10.07;3.80;;;17.40;99.90;;;;;;5053005;28;20112;-72
2023/06/04 07:33:06;;;;;;;9.10;4.15;;;17.60;99.90;;;;;;5052746;28;20407;-72
2023/06/04 07:35:31;;;;;;;9.48;3.70;;;17.70;99.90;;;;;;5052608;28;20492;-72
2023/06/04 07:37:57;;;;;;;9.85;3.80;;;17.80;99.90;;;;;;5052281;28;20021;-72
2023/06/04 07:40:23;;;;;;;14.27;3.83;;;17.90;99.90;;;;;;5052661;28;20094;-72
2023/06/04 07:42:49;;;;;;;11.07;3.78;;;18.00;99.90;;;;;;5052439;28;20057;-73
2023/06/04 07:45:15;;;;;;;11.23;4.10;;;18.10;99.90;;;;;;5052684;28;20029;-73
2023/06/04 07:47:42;;;;;;;12.02;4.40;;;18.20;99.90;;;;;;5053424;28;20028;-71
2023/06/04 07:50:08;;;;;;;10.60;3.70;;;18.30;99.90;;;;;;5052404;28;20021;-73
2023/06/04 07:52:34;;;;;;;9.32;4.00;;;18.30;99.90;;;;;;5052142;28;20036;-72
2023/06/04 07:55:00;;;;;;;9.48;3.80;;;18.40;99.90;;;;;;5052267;28;20021;-72
2023/06/04 07:57:26;;;;;;;8.45;4.35;;;18.40;99.90;;;;;;5052664;28;20056;-72
2023/06/04 07:59:52;;;;;;;7.03;3.63;;;18.50;99.90;;;;;;5052277;28;20062;-72
2023/06/04 08:02:18;;;;;;;9.60;3.70;;;18.50;99.90;;;;;;5052583;28;20029;-72
2023/06/04 08:04:45;;;;;;;6.13;3.83;;;18.50;99.90;;;;;;5051272;28;20051;-72
2023/06/04 08:07:11;;;;;;;9.38;3.55;;;18.50;99.90;;;;;;5052695;28;20105;-72
2023/06/04 08:09:37;;;;;;;10.10;3.30;;;18.60;99.90;;;;;;5052626;28;20512;-72
2023/06/04 08:12:02;;;;;;;9.48;3.47;;;18.70;99.90;;;;;;5052304;28;20146;-74
2023/06/04 08:14:28;;;;;;;7.82;3.50;;;18.70;99.90;;;;;;5052384;28;20024;-73
2023/06/04 08:16:54;;;;;;;7.43;3.25;;;18.80;99.90;;;;;;5051706;28;20371;-73
2023/06/04 08:19:20;;;;;;;8.77;3.22;;;18.80;99.90;;;;;;5052293;28;20029;-72
2023/06/04 08:21:47;;;;;;;7.80;3.50;;;18.90;99.90;;;;;;5051668;28;20033;-77
2023/06/04 08:24:13;;;;;;;8.90;3.42;;;19.00;99.90;;;;;;5052046;28;20048;-73
2023/06/04 08:26:39;;;;;;;9.45;3.10;;;18.90;99.90;;;;;;5052117;28;20095;-73
2023/06/04 08:29:05;;;;;;;7.88;3.33;;;19.00;99.90;;;;;;5051230;28;20378;-73
2023/06/04 08:31:32;;;;;;;7.68;3.22;;;19.00;99.90;;;;;;5051759;28;20442;-73
2023/06/04 08:33:57;;;;;;;14.10;3.75;;;19.00;99.90;;;;;;5051466;28;20113;-72
2023/06/04 08:36:23;;;;;;;8.18;3.10;;;19.10;99.90;;;;;;5051525;28;20158;-73
2023/06/04 08:38:50;;;;;;;7.72;3.22;;;19.10;99.90;;;;;;5050155;28;20035;-75
2023/06/04 08:41:27;;;;;;;10.52;3.83;;;19.20;99.90;;;;;;5051606;28;20473;-73
2023/06/04 08:43:56;;;;;;;7.65;3.40;;;19.30;99.90;;;;;;5051409;28;20029;-74
2023/06/04 08:46:22;;;;;;;9.63;3.17;;;19.30;99.90;;;;;;5051893;28;20296;-73
2023/06/04 08:48:50;;;;;;;8.15;3.33;;;19.20;99.90;;;;;;5051466;28;20079;-76
2023/06/04 08:51:16;;;;;;;10.07;3.40;;;19.10;99.90;;;;;;5050193;28;20131;-73
2023/06/04 08:53:42;;;;;;;9.43;3.88;;;19.20;99.90;;;;;;5051672;28;20048;-72
2023/06/04 08:56:09;;;;;;;10.45;3.33;;;19.20;99.90;;;;;;5051008;28;20086;-72
2023/06/04 08:58:36;;;;;;;9.95;3.00;;;19.20;99.90;;;;;;5051454;28;20152;-72
2023/06/04 09:01:02;;;;;;;9.90;3.35;;;19.30;99.90;;;;;;5050895;28;20029;-72
2023/06/04 09:03:32;;;;;;;7.38;3.05;;;19.40;99.90;;;;;;5048788;28;20040;-72
2023/06/04 09:05:59;;;;;;;9.45;2.85;;;19.40;99.90;;;;;;5050833;28;20054;-73
2023/06/04 09:08:26;;;;;;;6.38;2.90;;;19.50;99.90;;;;;;5051083;28;20025;-73
2023/06/04 09:10:55;;;;;;;8.52;2.90;;;19.50;99.90;;;;;;5051535;28;20095;-74
2023/06/04 09:13:27;;;;;;;7.90;2.67;;;19.70;99.90;;;;;;5050955;28;20021;-72
2023/06/04 09:16:08;;;;;;;9.18;3.20;;;19.80;99.90;;;;;;5052105;28;20108;-73
2023/06/04 09:18:34;;;;;;;7.13;3.15;;;19.90;99.90;;;;;;5052752;28;20032;-73
2023/06/04 09:21:06;;;;;;;9.43;2.80;;;19.90;99.90;;;;;;5051759;28;20124;-74
2023/06/04 09:23:36;;;;;;;11.50;2.88;;;19.90;99.90;;;;;;5052606;28;20029;-73
2023/06/04 09:26:09;;;;;;;8.25;2.65;;;19.90;99.90;;;;;;5051945;28;20128;-73
2023/06/04 09:28:36;;;;;;;9.55;3.10;;;19.70;99.90;;;;;;5051754;28;20032;-72
2023/06/04 09:31:02;;;;;;;7.60;2.83;;;19.70;99.90;;;;;;5050228;28;20041;-72
2023/06/04 09:33:28;;;;;;;6.22;2.50;;;19.60;99.90;;;;;;5050876;28;20025;-72
2023/06/04 09:35:57;;;;;;;6.55;2.38;;;19.70;99.90;;;;;;5050423;28;20331;-73
2023/06/04 09:38:23;;;;;;;7.32;2.70;;;19.80;99.90;;;;;;5049162;28;20029;-72
2023/06/04 09:40:49;;;;;;;10.38;3.08;;;19.80;99.90;;;;;;5050692;28;20063;-70
2023/06/04 09:43:25;;;;;;;6.97;2.47;;;19.90;99.90;;;;;;5049900;28;20188;-70
2023/06/04 09:45:51;;;;;;;6.82;2.75;;;20.10;99.90;;;;;;5049222;28;20355;-74
2023/06/04 09:48:21;;;;;;;8.75;2.38;;;20.20;99.90;;;;;;5048998;28;20025;-71
2023/06/04 09:50:47;;;;;;;6.80;2.65;;;20.30;99.90;;;;;;5050580;28;20033;-71
2023/06/04 09:53:22;;;;;;;5.60;2.38;;;20.20;99.90;;;;;;5049889;28;20100;-72
2023/06/04 09:55:58;;;;;;;9.50;3.08;;;20.20;99.90;;;;;;5050700;28;20165;-72
2023/06/04 09:58:28;;;;;;;30.33;3.78;;;20.30;99.90;;;;;;5050132;28;20474;-72
2023/06/04 10:01:03;;;;;;;7.22;2.50;;;20.20;99.90;;;;;;5048475;28;20029;-74
2023/06/04 10:03:34;;;;;;;7.10;2.60;;;20.00;99.90;;;;;;5050203;28;20427;-72
2023/06/04 10:06:05;;;;;;;6.15;2.30;;;19.90;99.90;;;;;;5049938;28;20056;-71
2023/06/04 10:08:32;;;;;;;4.25;2.17;;;19.80;99.90;;;;;;5050384;28;20074;-72
2023/06/04 10:11:02;;;;;;;9.73;3.05;;;19.70;99.90;;;;;;5048532;28;20044;-72
2023/06/04 10:13:31;;;;;;;5.22;2.40;;;19.80;99.90;;;;;;5050333;28;20025;-72
2023/06/04 10:15:58;;;;;;;7.40;2.45;;;19.50;99.90;;;;;;5049235;28;20561;-72
2023/06/04 10:18:25;;;;;;;5.68;2.40;;;19.20;99.90;;;;;;5050157;28;20029;-71
2023/06/04 10:20:54;;;;;;;5.60;2.97;;;19.20;99.90;;;;;;5050158;28;20034;-71
2023/06/04 10:23:22;;;;;;;5.22;2.33;;;19.30;99.90;;;;;;5049816;28;20040;-71
2023/06/04 10:25:50;;;;;;;8.40;2.58;;;19.50;99.90;;;;;;5050004;28;20049;-71
2023/06/04 10:28:17;;;;;;;7.75;2.75;;;19.60;99.90;;;;;;5049524;28;20029;-71
2023/06/04 10:30:43;;;;;;;5.80;2.20;;;19.50;99.90;;;;;;5049851;28;20033;-71
2023/06/04 10:33:09;;;;;;;7.05;2.55;;;19.60;99.90;;;;;;5049348;28;20032;-72
2023/06/04 10:35:36;;;;;;;3.60;2.20;;;19.70;99.90;;;;;;5049700;28;20386;-71
2023/06/04 10:38:10;;;;;;;3.75;2.30;;;19.90;99.90;;;;;;5048993;28;20146;-71
2023/06/04 10:40:36;;;;;;;6.65;2.47;;;20.00;99.90;;;;;;5050053;28;20116;-71
2023/06/04 10:43:13;;;;;;;5.88;2.42;;;20.10;99.90;;;;;;5047748;28;20536;-71
2023/06/04 10:45:40;;;;;;;5.38;2.30;;;20.10;99.90;;;;;;5049960;28;20029;-72
2023/06/04 10:48:10;;;;;;;5.38;2.42;;;20.20;99.90;;;;;;5048971;28;20021;-71
2023/06/04 10:50:48;;;;;;;6.57;2.40;;;20.30;99.90;;;;;;5049982;28;20095;-71
2023/06/04 10:53:14;;;;;;;10.65;2.95;;;20.10;99.90;;;;;;5049138;28;20026;-72
2023/06/04 10:55:44;;;;;;;4.95;2.15;;;19.90;99.90;;;;;;5050104;28;20025;-72
2023/06/04 10:58:10;;;;;;;7.38;2.38;;;19.90;99.90;;;;;;5048919;28;20539;-73
2023/06/04 11:00:41;;;;;;;6.75;2.35;;;19.90;99.90;;;;;;5050586;28;20037;-72
2023/06/04 11:03:09;;;;;;;3.65;2.05;;;19.80;99.90;;;;;;5050010;28;20037;-72
2023/06/04 11:05:39;;;;;;;4.57;2.20;;;19.70;99.90;;;;;;5050024;28;20363;-72
2023/06/04 11:08:06;;;;;;;4.50;2.33;;;19.80;99.90;;;;;;5049668;28;20052;-72
2023/06/04 11:10:35;;;;;;;6.40;2.45;;;19.80;99.90;;;;;;5050738;28;20411;-72
2023/06/04 11:13:01;;;;;;;5.30;2.40;;;19.90;99.90;;;;;;5049915;28;20025;-72
2023/06/04 11:15:36;;;;;;;5.32;2.60;;;19.80;99.90;;;;;;5050161;28;20044;-72
2023/06/04 11:18:02;;;;;;;4.55;2.45;;;19.60;99.90;;;;;;5050041;28;20021;-72
2023/06/04 11:20:28;;;;;;;6.80;2.47;;;19.50;99.90;;;;;;5050480;28;20086;-72
2023/06/04 11:22:59;;;;;;;5.45;2.28;;;19.60;99.90;;;;;;5050372;28;20049;-72
2023/06/04 11:25:26;;;;;;;4.15;2.28;;;19.40;99.90;;;;;;5049989;28;20033;-72
2023/06/04 11:27:53;;;;;;;3.33;2.10;;;19.40;99.90;;;;;;5052666;28;20032;-72
2023/06/04 11:30:19;;;;;;;3.97;2.55;;;19.50;99.90;;;;;;5053649;28;20044;-72
2023/06/04 11:32:45;;;;;;;6.18;2.40;;;19.50;99.90;;;;;;5054207;28;20059;-72
2023/06/04 11:35:11;;;;;;;6.75;2.72;;;19.40;99.90;;;;;;5053659;28;20075;-72
2023/06/04 11:37:37;;;;;;;6.70;2.45;;;19.30;99.90;;;;;;5054027;28;20107;-72
2023/06/04 11:40:26;;;;;;;4.15;2.40;;;19.30;99.90;;;;;;5053274;28;20029;-73
2023/06/04 11:42:52;;;;;;;4.88;2.15;;;19.30;99.90;;;;;;5053960;28;20470;-72
2023/06/04 11:45:20;;;;;;;4.60;2.10;;;19.50;99.90;;;;;;5053357;28;20059;-72
2023/06/04 11:47:51;;;;;;;3.80;2.17;;;19.60;99.90;;;;;;5053955;28;20458;-71
2023/06/04 11:50:17;;;;;;;4.72;2.00;;;19.60;99.90;;;;;;5053244;28;20470;-72
2023/06/04 11:52:43;;;;;;;6.68;2.70;;;19.70;99.90;;;;;;5053059;28;20033;-72
2023/06/04 11:55:13;;;;;;;4.10;2.10;;;19.70;99.90;;;;;;5052265;28;20055;-71
2023/06/04 11:57:39;;;;;;;4.25;2.40;;;19.80;99.90;;;;;;5052747;28;20021;-72
2023/06/04 12:00:11;;;;;;;4.88;2.30;;;19.80;99.90;;;;;;5052185;28;20416;-72
2023/06/04 12:02:38;;;;;;;3.65;2.15;;;19.50;99.90;;;;;;5052296;28;20029;-72
2023/06/04 12:05:14;;;;;;;4.75;2.50;;;19.60;99.90;;;;;;5052206;28;20033;-72
2023/06/04 12:07:41;;;;;;;3.60;2.35;;;19.50;99.90;;;;;;5052719;28;20063;-72
2023/06/04 12:10:17;;;;;;;4.47;2.17;;;19.50;99.90;;;;;;5051642;28;20451;-72
2023/06/04 12:12:43;;;;;;;5.30;2.70;;;19.50;99.90;;;;;;5052520;28;20382;-71
2023/06/04 12:15:09;;;;;;;7.50;2.78;;;19.50;99.90;;;;;;5049891;28;20025;-71
2023/06/04 12:17:49;;;;;;;5.10;2.63;;;19.40;99.90;;;;;;5052169;28;20463;-71
2023/06/04 12:20:15;;;;;;;6.93;1.98;;;19.40;99.90;;;;;;5051621;28;20021;-71
2023/06/04 12:22:47;;;;;;;6.75;2.58;;;19.30;99.90;;;;;;5051769;28;20025;-72
2023/06/04 12:25:27;;;;;;;4.88;2.15;;;19.20;99.90;;;;;;5051907;28;20036;-71
2023/06/04 12:27:53;;;;;;;4.53;2.33;;;19.20;99.90;;;;;;5052074;28;20033;-72
2023/06/04 12:30:19;;;;;;;5.88;2.17;;;19.20;99.90;;;;;;5051559;28;20024;-72
2023/06/04 12:32:45;;;;;;;8.52;2.60;;;19.30;99.90;;;;;;5052048;28;20123;-72
2023/06/04 12:35:11;;;;;;;5.28;2.38;;;19.40;99.90;;;;;;5051285;28;20320;-71
2023/06/04 12:37:37;;;;;;;5.13;2.40;;;19.40;99.90;;;;;;5051639;28;20035;-71
2023/06/04 12:40:06;;;;;;;4.57;2.28;;;19.30;99.90;;;;;;5051238;28;20106;-74
2023/06/04 12:42:32;;;;;;;4.22;2.00;;;19.30;99.90;;;;;;5051855;28;20029;-72
2023/06/04 12:44:58;;;;;;;6.53;2.60;;;19.30;99.90;;;;;;5051738;28;20362;-71
2023/06/04 12:47:24;;;;;;;3.28;2.10;;;19.20;99.90;;;;;;5051072;28;20043;-72